createdAt,value
2023-04-13T00:01:19.596Z,1.17
2023-04-13T00:03:49.922Z,0.90
2023-04-13T00:06:22.971Z,1.13
2023-04-13T00:08:54.811Z,1.10
2023-04-13T00:11:27.833Z,1.23
2023-04-13T00:13:58.893Z,1.27
2023-04-13T00:16:29.689Z,1.50
2023-04-13T00:18:57.828Z,1.00
2023-04-13T00:21:28.689Z,1.07
2023-04-13T00:24:03.091Z,1.23
2023-04-13T00:26:31.489Z,1.10
2023-04-13T00:29:00.872Z,1.30
2023-04-13T00:31:32.350Z,1.00
2023-04-13T00:34:02.020Z,1.00
2023-04-13T00:36:29.983Z,1.40
2023-04-13T00:38:59.960Z,1.20
2023-04-13T00:41:30.593Z,1.20
2023-04-13T00:44:01.163Z,0.90
2023-04-13T00:46:29.596Z,1.13
2023-04-13T00:48:58.195Z,1.20
2023-04-13T00:51:30.326Z,1.10
2023-04-13T00:54:01.880Z,1.33
2023-04-13T00:56:29.981Z,1.20
2023-04-13T00:59:00.554Z,1.20
2023-04-13T01:01:32.315Z,1.13
2023-04-13T01:04:03.083Z,1.30
2023-04-13T01:06:34.857Z,1.57
2023-04-13T01:09:08.337Z,1.27
2023-04-13T01:11:39.543Z,1.40
2023-04-13T01:14:13.112Z,1.50
2023-04-13T01:16:45.770Z,1.50
2023-04-13T01:19:26.161Z,1.30
2023-04-13T01:21:54.642Z,1.30
2023-04-13T01:24:30.813Z,1.23
2023-04-13T01:27:09.466Z,1.20
2023-04-13T01:29:39.964Z,1.40
2023-04-13T01:32:09.952Z,1.80
2023-04-13T01:34:38.545Z,1.30
2023-04-13T01:37:11.606Z,1.83
2023-04-13T01:39:42.677Z,1.10
2023-04-13T01:42:25.970Z,1.23
2023-04-13T01:44:56.994Z,1.10
2023-04-13T01:47:26.572Z,1.07
2023-04-13T01:50:15.827Z,0.90
2023-04-13T01:52:57.832Z,1.10
2023-04-13T01:55:27.169Z,1.30
2023-04-13T01:57:59.451Z,1.03
2023-04-13T02:00:35.838Z,1.00
2023-04-13T02:03:09.234Z,1.00
2023-04-13T02:05:53.438Z,1.17
2023-04-13T02:08:21.725Z,1.30
2023-04-13T02:10:50.178Z,1.17
2023-04-13T02:13:18.530Z,1.43
2023-04-13T02:15:48.316Z,1.27
2023-04-13T02:18:22.076Z,1.60
2023-04-13T02:21:03.334Z,1.10
2023-04-13T02:23:34.366Z,1.23
2023-04-13T02:26:02.730Z,1.20
2023-04-13T02:28:31.317Z,1.10
2023-04-13T02:31:05.418Z,1.30
2023-04-13T02:33:33.609Z,1.00
2023-04-13T02:36:02.678Z,1.30
2023-04-13T02:38:34.443Z,1.23
2023-04-13T02:41:10.808Z,1.00
2023-04-13T02:43:41.769Z,1.27
2023-04-13T02:46:11.489Z,0.90
2023-04-13T02:48:43.704Z,1.20
2023-04-13T02:51:12.288Z,1.20
2023-04-13T02:53:47.180Z,1.40
2023-04-13T02:56:19.346Z,1.10
2023-04-13T02:58:51.835Z,1.00
2023-04-13T03:01:25.008Z,1.20
2023-04-13T03:03:55.253Z,1.33
2023-04-13T03:06:26.337Z,1.23
2023-04-13T03:08:59.325Z,0.90
2023-04-13T03:11:30.762Z,2.00
2023-04-13T03:14:21.755Z,1.20
2023-04-13T03:16:58.863Z,1.23
2023-04-13T03:19:36.665Z,1.20
2023-04-13T03:22:05.768Z,1.30
2023-04-13T03:24:37.331Z,1.47
2023-04-13T03:27:09.283Z,1.57
2023-04-13T03:29:47.297Z,1.43
2023-04-13T03:32:25.907Z,1.30
2023-04-13T03:35:02.973Z,1.20
2023-04-13T03:37:40.181Z,1.30
2023-04-13T03:40:18.281Z,1.17
2023-04-13T03:42:51.448Z,1.40
2023-04-13T03:45:20.575Z,1.27
2023-04-13T03:47:50.787Z,1.30
2023-04-13T03:50:22.856Z,1.67
2023-04-13T03:52:55.072Z,1.30
2023-04-13T03:55:26.108Z,1.63
2023-04-13T03:57:56.967Z,1.60
2023-04-13T04:00:29.520Z,1.77
2023-04-13T04:03:18.674Z,1.40
2023-04-13T04:05:54.938Z,1.27
2023-04-13T04:08:23.619Z,1.57
2023-04-13T04:10:54.812Z,1.37
2023-04-13T04:13:23.540Z,1.50
2023-04-13T04:15:54.981Z,1.20
2023-04-13T04:18:24.683Z,1.30
2023-04-13T04:20:55.267Z,1.23
2023-04-13T04:23:28.361Z,1.30
2023-04-13T04:26:04.331Z,1.30
2023-04-13T04:28:42.144Z,1.33
2023-04-13T04:31:14.998Z,1.23
2023-04-13T04:33:48.049Z,1.10
2023-04-13T04:36:20.982Z,1.20
2023-04-13T04:39:02.151Z,1.37
2023-04-13T04:41:37.413Z,1.53
2023-04-13T04:44:08.278Z,1.00
2023-04-13T04:46:41.570Z,1.00
2023-04-13T04:49:21.555Z,1.10
2023-04-13T04:51:52.933Z,1.40
2023-04-13T04:54:25.450Z,1.10
2023-04-13T04:56:53.807Z,1.03
2023-04-13T04:59:25.233Z,1.27
2023-04-13T05:01:59.547Z,1.20
2023-04-13T05:04:33.484Z,1.30
2023-04-13T05:07:05.174Z,1.00
2023-04-13T05:09:39.668Z,1.00
2023-04-13T05:12:08.442Z,1.30
2023-04-13T05:14:39.241Z,1.10
2023-04-13T05:17:07.768Z,1.07
2023-04-13T05:19:41.055Z,1.00
2023-04-13T05:22:13.503Z,1.07
2023-04-13T05:24:51.302Z,0.87
2023-04-13T05:27:25.131Z,1.00
2023-04-13T05:29:56.524Z,1.00
2023-04-13T05:32:26.652Z,1.03
2023-04-13T05:35:01.151Z,1.00
2023-04-13T05:37:31.084Z,1.07
2023-04-13T05:39:59.317Z,1.30
2023-04-13T05:42:37.901Z,1.10
2023-04-13T05:45:09.701Z,0.90
2023-04-13T05:47:47.560Z,0.97
2023-04-13T05:50:18.310Z,0.90
2023-04-13T05:52:51.822Z,0.80
2023-04-13T05:55:20.093Z,1.20
2023-04-13T05:57:55.123Z,0.77
2023-04-13T06:00:35.512Z,1.00
2023-04-13T06:03:08.865Z,1.77
2023-04-13T06:05:41.554Z,0.80
2023-04-13T06:08:14.170Z,1.00
2023-04-13T06:10:44.785Z,0.90
2023-04-13T06:13:18.746Z,0.97
2023-04-13T06:15:47.764Z,0.90
2023-04-13T06:18:18.030Z,0.80
2023-04-13T06:20:47.412Z,0.90
2023-04-13T06:23:15.825Z,0.80
2023-04-13T06:25:46.950Z,0.70
2023-04-13T06:28:29.084Z,0.90
2023-04-13T06:30:58.494Z,0.70
2023-04-13T06:33:28.758Z,0.97
2023-04-13T06:35:58.837Z,1.00
2023-04-13T06:38:33.565Z,0.90
2023-04-13T06:41:06.771Z,1.00
2023-04-13T06:43:43.814Z,1.00
2023-04-13T06:46:32.466Z,1.30
2023-04-13T06:49:10.730Z,1.00
2023-04-13T06:51:42.866Z,1.67
2023-04-13T06:54:10.992Z,1.73
2023-04-13T06:56:46.074Z,2.00
2023-04-13T06:59:14.234Z,1.30
2023-04-13T07:01:42.460Z,1.80
2023-04-13T07:04:10.898Z,1.13
2023-04-13T07:06:44.155Z,1.30
2023-04-13T07:09:12.576Z,1.50
2023-04-13T07:11:45.552Z,1.33
2023-04-13T07:14:18.577Z,1.13
2023-04-13T07:16:48.579Z,1.40
2023-04-13T07:19:20.453Z,1.20
2023-04-13T07:21:53.606Z,1.00
2023-04-13T07:24:29.878Z,1.10
2023-04-13T07:27:00.159Z,1.20
2023-04-13T07:29:31.727Z,1.03
2023-04-13T07:32:08.208Z,0.83
2023-04-13T07:34:40.625Z,0.93
2023-04-13T07:37:12.567Z,0.90
2023-04-13T07:39:44.290Z,0.80
2023-04-13T07:42:16.527Z,0.77
2023-04-13T07:44:49.552Z,0.93
2023-04-13T07:47:17.714Z,0.80
2023-04-13T07:49:53.398Z,0.90
2023-04-13T07:52:25.360Z,0.57
2023-04-13T07:54:54.971Z,0.73
2023-04-13T07:57:24.081Z,1.10
2023-04-13T07:59:59.118Z,0.80
2023-04-13T08:02:27.656Z,0.90
2023-04-13T08:04:59.045Z,0.97
2023-04-13T08:07:33.945Z,1.00
2023-04-13T08:10:06.841Z,1.03
2023-04-13T08:12:40.879Z,1.27
2023-04-13T08:15:11.024Z,0.90
2023-04-13T08:17:41.919Z,1.07
2023-04-13T08:20:10.813Z,1.20
2023-04-13T08:22:45.795Z,1.40
2023-04-13T08:25:17.559Z,1.50
2023-04-13T08:27:51.012Z,1.00
2023-04-13T08:30:21.675Z,1.17
2023-04-13T08:32:57.983Z,1.90
2023-04-13T08:35:27.849Z,2.00
2023-04-13T08:37:59.133Z,1.90
2023-04-13T08:40:29.784Z,1.50
2023-04-13T08:42:59.128Z,1.80
2023-04-13T08:45:30.843Z,1.83
2023-04-13T08:47:59.813Z,2.23
2023-04-13T08:50:28.031Z,1.73
2023-04-13T08:53:01.611Z,1.50
2023-04-13T08:55:32.277Z,1.50
2023-04-13T08:58:04.795Z,1.30
2023-04-13T09:00:36.257Z,1.30
2023-04-13T09:03:13.487Z,1.40
2023-04-13T09:05:48.787Z,1.50
2023-04-13T09:08:19.880Z,1.70
2023-04-13T09:10:49.343Z,1.73
2023-04-13T09:13:17.346Z,2.13
2023-04-13T09:15:47.384Z,1.77
2023-04-13T09:18:28.365Z,1.40
2023-04-13T09:21:08.140Z,1.50
2023-04-13T09:23:37.552Z,1.60
2023-04-13T09:26:09.499Z,1.43
2023-04-13T09:28:47.067Z,2.40
2023-04-13T09:31:18.666Z,1.57
2023-04-13T09:33:49.486Z,1.60
2023-04-13T09:36:22.571Z,1.67
2023-04-13T09:38:58.084Z,1.23
2023-04-13T09:41:31.807Z,1.70
2023-04-13T09:44:03.202Z,1.70
2023-04-13T09:46:32.171Z,1.90
2023-04-13T09:49:02.619Z,1.40
2023-04-13T09:51:40.423Z,1.60
2023-04-13T09:54:11.535Z,1.40
2023-04-13T09:56:54.049Z,1.00
2023-04-13T09:59:25.592Z,1.20
2023-04-13T10:01:55.263Z,1.50
2023-04-13T10:04:26.715Z,1.03
2023-04-13T10:07:04.917Z,1.10
2023-04-13T10:09:36.742Z,1.70
2023-04-13T10:12:08.436Z,1.43
2023-04-13T10:14:39.207Z,1.70
2023-04-13T10:17:44.653Z,1.47
2023-04-13T10:20:14.839Z,1.60
2023-04-13T10:22:47.780Z,1.97
2023-04-13T10:25:32.183Z,1.80
2023-04-13T10:28:07.008Z,2.20
2023-04-13T10:30:38.071Z,1.93
2023-04-13T10:33:11.486Z,1.73
2023-04-13T10:35:42.934Z,1.60
2023-04-13T10:38:15.231Z,2.07
2023-04-13T10:40:45.645Z,2.30
2023-04-13T10:43:26.653Z,2.10
2023-04-13T10:46:08.465Z,1.97
2023-04-13T10:48:36.638Z,1.80
2023-04-13T10:51:07.508Z,2.00
2023-04-13T10:53:35.862Z,1.90
2023-04-13T10:56:06.172Z,2.23
2023-04-13T10:58:34.429Z,2.20
2023-04-13T11:01:03.777Z,2.00
2023-04-13T11:03:34.030Z,2.13
2023-04-13T11:06:02.492Z,2.10
2023-04-13T11:08:30.636Z,2.47
2023-04-13T11:10:58.914Z,2.20
2023-04-13T11:13:29.248Z,2.10
2023-04-13T11:16:06.868Z,2.00
2023-04-13T11:18:34.968Z,1.87
2023-04-13T11:21:07.590Z,2.63
2023-04-13T11:23:37.300Z,2.00
2023-04-13T11:26:08.249Z,2.40
2023-04-13T11:28:42.741Z,2.20
2023-04-13T11:31:12.046Z,2.60
2023-04-13T11:33:41.965Z,2.20
2023-04-13T11:36:11.775Z,2.40
2023-04-13T11:38:40.872Z,2.13
2023-04-13T11:41:16.323Z,2.00
2023-04-13T11:43:51.448Z,2.50
2023-04-13T11:46:25.056Z,2.00
2023-04-13T11:48:53.652Z,2.23
2023-04-13T11:51:25.591Z,2.30
2023-04-13T11:53:54.196Z,2.50
2023-04-13T11:56:34.020Z,2.63
2023-04-13T11:59:09.274Z,2.37
2023-04-13T12:01:49.222Z,2.33
2023-04-13T12:04:25.492Z,2.10
2023-04-13T12:06:54.186Z,2.50
2023-04-13T12:09:54.677Z,2.57
2023-04-13T12:12:50.635Z,4.93
2023-04-13T12:15:23.047Z,2.30
2023-04-13T12:18:14.339Z,1.90
2023-04-13T12:20:46.096Z,2.20
2023-04-13T12:23:23.526Z,2.13
2023-04-13T12:25:58.659Z,2.47
2023-04-13T12:28:34.793Z,2.37
2023-04-13T12:31:05.211Z,2.40
2023-04-13T12:33:33.265Z,2.20
2023-04-13T12:36:06.368Z,1.97
2023-04-13T12:38:35.444Z,2.00
2023-04-13T12:41:05.678Z,2.03
2023-04-13T12:43:33.681Z,2.23
2023-04-13T12:46:05.314Z,2.20
2023-04-13T12:48:33.340Z,2.20
2023-04-13T12:51:04.002Z,2.50
2023-04-13T12:53:31.957Z,2.00
2023-04-13T12:56:00.827Z,2.00
2023-04-13T12:58:33.593Z,2.03
2023-04-13T13:01:02.485Z,1.97
2023-04-13T13:03:36.783Z,2.23
2023-04-13T13:06:07.743Z,2.20
2023-04-13T13:08:39.871Z,2.33
2023-04-13T13:11:09.200Z,2.33
2023-04-13T13:13:45.516Z,2.40
2023-04-13T13:16:15.200Z,2.67
2023-04-13T13:18:50.965Z,2.00
2023-04-13T13:21:21.113Z,2.20
2023-04-13T13:23:54.803Z,2.30
2023-04-13T13:26:28.850Z,2.00
2023-04-13T13:29:06.401Z,1.73
2023-04-13T13:31:34.424Z,2.43
2023-04-13T13:34:03.864Z,2.30
2023-04-13T13:36:31.823Z,2.30
2023-04-13T13:39:01.797Z,2.47
2023-04-13T13:41:30.381Z,2.03
2023-04-13T13:43:58.329Z,2.20
2023-04-13T13:46:28.912Z,2.10
2023-04-13T13:48:59.094Z,2.43
2023-04-13T13:51:38.991Z,1.97
2023-04-13T13:54:09.119Z,1.97
2023-04-13T13:56:42.995Z,2.20
2023-04-13T13:59:12.443Z,1.80
2023-04-13T14:01:44.776Z,2.17
2023-04-13T14:04:13.572Z,2.57
2023-04-13T14:06:46.780Z,2.53
2023-04-13T14:09:16.247Z,2.27
2023-04-13T14:11:45.326Z,2.40
2023-04-13T14:14:21.113Z,2.80
2023-04-13T14:16:52.677Z,2.33
2023-04-13T14:19:23.590Z,2.23
2023-04-13T14:21:56.491Z,2.33
2023-04-13T14:24:27.639Z,2.10
2023-04-13T14:26:55.725Z,2.13
2023-04-13T14:29:26.369Z,2.40
2023-04-13T14:31:54.689Z,1.73
2023-04-13T14:34:22.643Z,2.20
2023-04-13T14:36:58.047Z,2.03
2023-04-13T14:39:27.327Z,2.20
2023-04-13T14:41:56.595Z,2.07
2023-04-13T14:44:24.958Z,2.17
2023-04-13T14:46:55.721Z,2.17
2023-04-13T14:49:24.131Z,1.60
2023-04-13T14:51:55.065Z,2.17
2023-04-13T14:54:27.387Z,2.07
2023-04-13T14:56:58.070Z,2.20
2023-04-13T14:59:27.221Z,1.70
2023-04-13T15:02:01.309Z,1.70
2023-04-13T15:04:32.474Z,1.80
2023-04-13T15:07:03.521Z,1.93
2023-04-13T15:09:34.158Z,2.27
2023-04-13T15:12:04.380Z,2.17
2023-04-13T15:14:32.580Z,2.10
2023-04-13T15:17:04.509Z,1.80
2023-04-13T15:19:36.814Z,2.23
2023-04-13T15:22:10.165Z,2.27
2023-04-13T15:24:39.654Z,1.80
2023-04-13T15:27:07.786Z,1.70
2023-04-13T15:29:35.970Z,2.23
2023-04-13T15:32:06.750Z,2.23
2023-04-13T15:34:34.825Z,2.00
2023-04-13T15:37:02.996Z,1.80
2023-04-13T15:39:31.060Z,1.93
2023-04-13T15:42:00.706Z,2.20
2023-04-13T15:44:28.735Z,2.07
2023-04-13T15:46:56.829Z,1.90
2023-04-13T15:49:24.907Z,1.80
2023-04-13T15:51:52.969Z,2.00
2023-04-13T15:54:23.041Z,1.57
2023-04-13T15:56:54.072Z,1.50
2023-04-13T15:59:26.859Z,2.20
2023-04-13T16:01:55.285Z,2.30
2023-04-13T16:04:27.246Z,2.20
2023-04-13T16:07:09.011Z,2.23
2023-04-13T16:09:42.883Z,1.93
2023-04-13T16:12:11.169Z,1.80
2023-04-13T16:14:42.071Z,2.00
2023-04-13T16:17:14.800Z,2.00
2023-04-13T16:19:47.342Z,2.33
2023-04-13T16:22:17.208Z,1.90
2023-04-13T16:24:45.314Z,2.20
2023-04-13T16:27:16.577Z,2.17
2023-04-13T16:29:46.171Z,2.50
2023-04-13T16:32:14.195Z,2.10
2023-04-13T16:34:42.886Z,2.20
2023-04-13T16:37:11.016Z,2.27
2023-04-13T16:39:40.431Z,1.97
2023-04-13T16:42:11.283Z,2.63
2023-04-13T16:44:42.117Z,2.27
2023-04-13T16:47:16.635Z,2.20
2023-04-13T16:49:44.705Z,2.33
2023-04-13T16:52:15.977Z,1.50
2023-04-13T16:54:49.346Z,1.80
2023-04-13T16:57:17.447Z,1.87
2023-04-13T16:59:50.339Z,1.93
2023-04-13T17:04:55.527Z,2.57
2023-04-13T17:07:26.767Z,1.70
2023-04-13T17:09:55.169Z,2.20
2023-04-13T17:12:26.057Z,1.83
2023-04-13T17:14:54.426Z,2.00
2023-04-13T17:17:24.064Z,2.27
2023-04-13T17:19:53.898Z,2.00
2023-04-13T17:22:22.132Z,2.20
2023-04-13T17:24:50.312Z,2.40
2023-04-13T17:27:18.336Z,1.77
2023-04-13T17:29:46.420Z,2.27
2023-04-13T17:32:14.453Z,2.33
2023-04-13T17:34:44.629Z,2.07
2023-04-13T17:37:15.747Z,1.77
2023-04-13T17:39:47.430Z,2.40
2023-04-13T17:42:18.175Z,2.00
2023-04-13T17:44:46.315Z,2.00
2023-04-13T17:47:17.905Z,2.00
2023-04-13T17:49:47.213Z,2.40
2023-04-13T17:52:15.142Z,2.40
2023-04-13T17:54:43.239Z,2.60
2023-04-13T17:57:11.231Z,2.80
2023-04-13T17:59:39.243Z,3.07
2023-04-13T18:02:07.597Z,2.50
2023-04-13T18:04:42.653Z,2.60
2023-04-13T18:07:12.051Z,2.50
2023-04-13T18:09:41.296Z,2.20
2023-04-13T18:12:12.839Z,2.60
2023-04-13T18:14:45.778Z,2.63
2023-04-13T18:17:16.990Z,2.70
2023-04-13T18:19:45.060Z,2.50
2023-04-13T18:22:17.937Z,2.63
2023-04-13T18:24:48.035Z,2.80
2023-04-13T18:27:16.346Z,2.40
2023-04-13T18:29:45.089Z,2.13
2023-04-13T18:32:16.787Z,2.50
2023-04-13T18:34:45.090Z,3.30
2023-04-13T18:37:13.331Z,2.33
2023-04-13T18:39:48.135Z,2.27
2023-04-13T18:42:16.200Z,2.43
2023-04-13T18:44:49.096Z,2.93
2023-04-13T18:47:19.323Z,2.73
2023-04-13T18:49:50.718Z,2.70
2023-04-13T18:52:21.015Z,2.57
2023-04-13T18:54:51.345Z,2.00
2023-04-13T18:57:20.102Z,1.60
2023-04-13T18:59:50.196Z,1.80
2023-04-13T19:02:18.505Z,2.07
2023-04-13T19:04:49.771Z,1.80
2023-04-13T19:07:21.809Z,2.07
2023-04-13T19:09:51.327Z,2.10
2023-04-13T19:12:19.321Z,2.00
2023-04-13T19:14:52.298Z,1.63
2023-04-13T19:17:27.076Z,1.57
2023-04-13T19:19:56.810Z,1.50
2023-04-13T19:22:32.868Z,1.60
2023-04-13T19:25:02.259Z,1.87
2023-04-13T19:27:34.290Z,1.47
2023-04-13T19:30:02.443Z,2.00
2023-04-13T19:32:30.692Z,2.00
2023-04-13T19:35:01.007Z,1.97
2023-04-13T19:37:29.153Z,1.70
2023-04-13T19:39:57.585Z,2.03
2023-04-13T19:42:28.515Z,1.57
2023-04-13T19:44:56.763Z,1.90
2023-04-13T19:47:27.585Z,1.80
2023-04-13T19:49:55.995Z,1.67
2023-04-13T19:52:32.303Z,1.80
2023-04-13T19:55:01.678Z,2.03
2023-04-13T19:57:32.986Z,2.00
2023-04-13T20:00:01.129Z,1.60
2023-04-13T20:02:31.863Z,1.87
2023-04-13T20:05:02.446Z,1.63
2023-04-13T20:07:30.628Z,2.00
2023-04-13T20:09:58.601Z,2.33
2023-04-13T20:12:26.704Z,1.50
2023-04-13T20:14:59.447Z,1.60
2023-04-13T20:17:37.717Z,2.23
2023-04-13T20:20:10.469Z,1.50
2023-04-13T20:22:45.834Z,1.93
2023-04-13T20:25:14.076Z,1.80
2023-04-13T20:27:45.756Z,1.90
2023-04-13T20:30:15.752Z,1.80
2023-04-13T20:32:43.816Z,1.53
2023-04-13T20:35:20.982Z,1.77
2023-04-13T20:37:52.615Z,1.90
2023-04-13T20:40:27.563Z,1.83
2023-04-13T20:42:58.476Z,1.90
2023-04-13T20:45:29.721Z,1.40
2023-04-13T20:48:48.383Z,1.60
2023-04-13T20:50:53.603Z,1.60
2023-04-13T20:53:28.475Z,1.43
2023-04-13T20:56:09.223Z,1.60
2023-04-13T20:58:40.823Z,1.90
2023-04-13T21:01:15.021Z,2.00
2023-04-13T21:03:46.485Z,1.77
2023-04-13T21:06:17.279Z,2.07
2023-04-13T21:08:45.602Z,1.90
2023-04-13T21:11:16.372Z,2.03
2023-04-13T21:13:44.329Z,2.03
2023-04-13T21:16:14.473Z,2.23
2023-04-13T21:18:47.427Z,2.17
2023-04-13T21:21:16.365Z,2.10
2023-04-13T21:23:50.845Z,1.70
2023-04-13T21:26:23.220Z,2.23
2023-04-13T21:28:54.397Z,2.40
2023-04-13T21:31:26.665Z,2.50
2023-04-13T21:33:55.963Z,2.43
2023-04-13T21:38:57.487Z,2.00
2023-04-13T21:41:25.605Z,2.40
2023-04-13T21:43:55.497Z,2.60
2023-04-13T21:46:25.139Z,2.93
2023-04-13T21:48:53.214Z,2.47
2023-04-13T21:51:24.201Z,2.30
2023-04-13T21:53:57.109Z,2.33
2023-04-13T21:56:25.106Z,2.50
2023-04-13T21:58:54.521Z,2.33
2023-04-13T22:01:27.676Z,2.20
2023-04-13T22:03:56.049Z,2.43
2023-04-13T22:06:24.096Z,2.73
2023-04-13T22:08:56.805Z,2.73
2023-04-13T22:11:24.974Z,2.90
2023-04-13T22:13:52.903Z,2.47
2023-04-13T22:16:20.987Z,2.50
2023-04-13T22:18:50.347Z,2.60
2023-04-13T22:21:18.465Z,2.60
2023-04-13T22:23:48.815Z,2.10
2023-04-13T22:26:16.760Z,2.40
2023-04-13T22:28:44.670Z,2.20
2023-04-13T22:31:12.906Z,2.77
2023-04-13T22:33:40.876Z,2.10
2023-04-13T22:36:22.692Z,2.03
2023-04-13T22:38:50.956Z,2.30
2023-04-13T22:41:18.982Z,2.40
2023-04-13T22:43:49.150Z,2.50
2023-04-13T22:46:17.245Z,3.27
2023-04-13T22:48:48.289Z,2.57
2023-04-13T22:51:21.965Z,2.50
2023-04-13T22:53:51.315Z,2.43
2023-04-13T22:56:21.984Z,2.80
2023-04-13T22:58:58.465Z,2.77
2023-04-13T23:01:27.992Z,2.90
2023-04-13T23:03:56.499Z,2.40
2023-04-13T23:06:25.212Z,2.63
2023-04-13T23:08:57.562Z,2.40
2023-04-13T23:11:25.600Z,2.60
2023-04-13T23:13:55.054Z,2.60
2023-04-13T23:16:26.434Z,2.60
2023-04-13T23:18:54.436Z,2.10
2023-04-13T23:21:22.423Z,2.27
2023-04-13T23:23:53.947Z,2.60
2023-04-13T23:26:25.455Z,2.10
2023-04-13T23:28:57.138Z,2.60
2023-04-13T23:31:25.383Z,2.40
2023-04-13T23:33:56.119Z,2.73
2023-04-13T23:36:27.487Z,2.00
2023-04-13T23:38:57.035Z,2.40
2023-04-13T23:41:25.068Z,2.40
2023-04-13T23:43:53.494Z,2.60
2023-04-13T23:46:22.556Z,2.80
2023-04-13T23:48:50.582Z,2.50
2023-04-13T23:51:25.770Z,2.40
2023-04-13T23:53:53.673Z,2.30
2023-04-13T23:56:22.968Z,2.40
2023-04-13T23:58:52.227Z,2.50
